Time;durP1;ratioP1;P1;durP2;ratioP2;P2;SDS_P1;SDS_P2;PMS_P1;PMS_P2;Temp;Humidity;BMP_temperature;BMP_pressure;BME280_temperature;BME280_humidity;BME280_pressure;Samples;Min_cycle;Max_cycle;Signal;HPM_P1;HPM_P2
2021/11/01 00:01:00;;;;;;;;;;;;;;;1.28;100.00;99895.61;1665544;86;20089;-66
2021/11/01 00:03:27;;;;;;;;;;;;;;;1.30;100.00;99896.25;1669187;84;20113;-68
2021/11/01 00:05:55;;;;;;;;;;;;;;;1.33;100.00;99898.52;1659373;85;20076;-67
2021/11/01 00:08:22;;;;;;;;;;;;;;;1.30;100.00;99890.95;1657644;86;21207;-68
2021/11/01 00:10:48;;;;;;;;;;;;;;;1.28;100.00;99895.09;1655378;86;20597;-67
2021/11/01 00:13:15;;;;;;;;;;;;;;;1.36;100.00;99893.36;1643373;86;20124;-68
2021/11/01 00:15:42;;;;;;;;;;;;;;;1.31;100.00;99893.09;1605742;88;20149;-68
2021/11/01 00:18:10;;;;;;;;;;;;;;;1.29;100.00;99879.53;1647613;86;20077;-68
2021/11/01 00:20:36;;;;;;;;;;;;;;;1.32;100.00;99888.92;1659193;86;21187;-68
2021/11/01 00:23:03;;;;;;;;;;;;;;;1.35;100.00;99886.41;1638268;86;20171;-69
2021/11/01 00:28:11;;;;;;;;;;;;;;;1.38;100.00;99885.55;1649937;86;20144;-67
2021/11/01 00:30:38;;;;;;;;;;;;;;;1.39;100.00;99889.02;1644411;86;20117;-67
2021/11/01 00:33:05;;;;;;;;;;;;;;;1.44;100.00;99883.98;1656196;86;21143;-67
2021/11/01 00:35:31;;;;;;;;;;;;;;;1.47;100.00;99876.51;1656490;86;20100;-67
2021/11/01 00:37:58;;;;;;;;;;;;;;;1.49;100.00;99874.50;1657075;86;20116;-67
2021/11/01 00:40:24;;;;;;;;;;;;;;;1.47;100.00;99873.86;1656730;86;20109;-66
2021/11/01 00:42:51;;;;;;;;;;;;;;;1.43;100.00;99871.77;1656758;86;20417;-66
2021/11/01 00:45:17;;;;;;;;;;;;;;;1.49;100.00;99871.01;1656590;85;21087;-67
2021/11/01 00:47:43;;;;;;;;;;;;;;;1.47;100.00;99867.73;1656839;86;20168;-66
2021/11/01 00:50:09;;;;;;;;;;;;;;;1.51;100.00;99862.39;1650709;86;20088;-65
2021/11/01 00:52:36;;;;;;;;;;;;;;;1.49;100.00;99861.75;1634069;86;20417;-67
2021/11/01 00:55:06;;;;;;;;;;;;;;;1.46;100.00;99864.27;1645361;86;20224;-66
2021/11/01 00:57:32;;;;;;;;;;;;;;;1.46;100.00;99860.30;1627509;86;21101;-67
2021/11/01 00:59:59;;;;;;;;;;;;;;;1.42;100.00;99855.09;1642778;86;20117;-66
2021/11/01 01:02:27;;;;;;;;;;;;;;;1.43;100.00;99855.91;1633211;86;20072;-67
2021/11/01 01:04:53;;;;;;;;;;;;;;;1.38;100.00;99857.78;1647631;86;20460;-67
2021/11/01 01:07:20;;;;;;;;;;;;;;;1.37;100.00;99850.86;1656571;86;20117;-67
2021/11/01 01:09:47;;;;;;;;;;;;;;;1.32;100.00;99843.96;1650122;86;21897;-67
2021/11/01 01:12:15;;;;;;;;;;;;;;;1.27;100.00;99845.03;1632707;85;20100;-67
2021/11/01 01:14:45;;;;;;;;;;;;;;;1.24;100.00;99845.41;1644606;86;20104;-67
2021/11/01 01:17:10;;;;;;;;;;;;;;;1.20;100.00;99830.43;1628830;86;20128;-67
2021/11/01 01:19:45;;;;;;;;;;;;;;;1.17;100.00;99828.13;1641714;86;20139;-67
2021/11/01 01:22:18;;;;;;;;;;;;;;;1.09;100.00;99819.00;1642924;86;21183;-67
2021/11/01 01:24:40;;;;;;;;;;;;;;;1.05;100.00;99803.18;1643281;86;20125;-67
2021/11/01 01:27:06;;;;;;;;;;;;;;;1.03;100.00;99809.18;1641647;86;20104;-67
2021/11/01 01:29:33;;;;;;;;;;;;;;;0.99;100.00;99807.39;1638975;86;20603;-66
2021/11/01 01:32:00;;;;;;;;;;;;;;;0.95;100.00;99805.30;1634858;86;20132;-68
2021/11/01 01:34:27;;;;;;;;;;;;;;;0.92;100.00;99805.68;1653109;86;21159;-67
2021/11/01 01:36:53;;;;;;;;;;;;;;;0.93;100.00;99804.66;1656325;86;20109;-67
2021/11/01 01:39:20;;;;;;;;;;;;;;;0.96;100.00;99796.39;1645264;86;20100;-67
2021/11/01 01:41:46;;;;;;;;;;;;;;;0.97;100.00;99802.79;1642238;86;20116;-67
2021/11/01 01:44:13;;;;;;;;;;;;;;;0.96;100.00;99797.20;1634444;86;20112;-67
2021/11/01 01:46:40;;;;;;;;;;;;;;;0.94;100.00;99797.88;1633516;86;21122;-67
2021/11/01 01:49:07;;;;;;;;;;;;;;;0.88;100.00;99795.96;1637603;86;20120;-66
2021/11/01 01:51:34;;;;;;;;;;;;;;;0.83;100.00;99787.77;1650237;86;20216;-65
2021/11/01 01:54:01;;;;;;;;;;;;;;;0.77;100.00;99785.38;1656268;86;20152;-67
2021/11/01 01:56:27;;;;;;;;;;;;;;;0.70;100.00;99782.33;1657065;86;20120;-66
2021/11/01 01:58:58;;;;;;;;;;;;;;;0.66;100.00;99786.34;1656632;86;21055;-67
2021/11/01 02:01:27;;;;;;;;;;;;;;;0.62;100.00;99785.39;1656905;86;20084;-67
2021/11/01 02:03:54;;;;;;;;;;;;;;;0.64;100.00;99784.70;1648010;86;20148;-68
2021/11/01 02:06:48;;;;;;;;;;;;;;;0.69;100.00;99788.63;1656812;85;20088;-67
2021/11/01 02:09:22;;;;;;;;;;;;;;;0.69;100.00;99782.84;1656756;86;20096;-66
2021/11/01 02:12:06;;;;;;;;;;;;;;;0.64;100.00;99782.06;1656839;85;21762;-67
2021/11/01 02:14:39;;;;;;;;;;;;;;;0.58;100.00;99787.25;1656953;86;20140;-67
2021/11/01 02:17:07;;;;;;;;;;;;;;;0.57;100.00;99783.80;1655655;86;20085;-67
2021/11/01 02:19:37;;;;;;;;;;;;;;;0.68;100.00;99781.69;1670845;85;20156;-68
2021/11/01 02:22:09;;;;;;;;;;;;;;;0.81;100.00;99781.37;1651785;86;20192;-67
2021/11/01 02:24:56;;;;;;;;;;;;;;;0.87;100.00;99774.52;1649473;86;21159;-67
2021/11/01 02:27:24;;;;;;;;;;;;;;;0.95;100.00;99777.04;1664185;85;20123;-67
2021/11/01 02:29:51;;;;;;;;;;;;;;;0.99;100.00;99778.83;1645036;86;20105;-67
2021/11/01 02:32:17;;;;;;;;;;;;;;;1.04;100.00;99775.94;1651769;86;20384;-67
2021/11/01 02:34:44;;;;;;;;;;;;;;;1.02;100.00;99775.80;1645825;86;20123;-67
2021/11/01 02:37:10;;;;;;;;;;;;;;;0.98;100.00;99776.69;1619419;86;21981;-67
2021/11/01 02:39:49;;;;;;;;;;;;;;;0.99;100.00;99770.39;1643259;86;20104;-67
2021/11/01 02:42:16;;;;;;;;;;;;;;;0.98;100.00;99766.59;1650995;86;20121;-66
2021/11/01 02:44:58;;;;;;;;;;;;;;;1.00;100.00;99764.59;1657751;86;20169;-68
2021/11/01 02:47:27;;;;;;;;;;;;;;;0.96;100.00;99760.20;1656744;86;20082;-67
2021/11/01 02:49:54;;;;;;;;;;;;;;;0.92;100.00;99758.92;1654889;86;21143;-67
2021/11/01 02:52:21;;;;;;;;;;;;;;;0.90;100.00;99756.95;1630512;88;20128;-66
2021/11/01 02:54:48;;;;;;;;;;;;;;;0.89;100.00;99758.48;1650456;86;20100;-66
2021/11/01 02:57:14;;;;;;;;;;;;;;;0.86;100.00;99759.67;1644960;86;20092;-66
2021/11/01 02:59:41;;;;;;;;;;;;;;;0.85;100.00;99760.16;1652070;86;20131;-67
2021/11/01 03:02:09;;;;;;;;;;;;;;;0.79;100.00;99747.70;1651462;85;21204;-67
2021/11/01 03:04:36;;;;;;;;;;;;;;;0.71;100.00;99754.90;1654524;86;20269;-66
2021/11/01 03:07:02;;;;;;;;;;;;;;;0.67;100.00;99758.93;1639551;86;20097;-66
2021/11/01 03:09:30;;;;;;;;;;;;;;;0.66;100.00;99758.59;1641297;86;20666;-67
2021/11/01 03:12:03;;;;;;;;;;;;;;;0.74;100.00;99757.19;1642532;86;20145;-66
2021/11/01 03:14:35;;;;;;;;;;;;;;;0.70;100.00;99754.08;1641029;86;20524;-67
2021/11/01 03:17:03;;;;;;;;;;;;;;;0.62;100.00;99762.13;1653877;85;20382;-67
2021/11/01 03:19:29;;;;;;;;;;;;;;;0.58;100.00;99756.87;1652479;86;20499;-67
2021/11/01 03:22:00;;;;;;;;;;;;;;;0.56;100.00;99758.88;1661594;86;20143;-66
2021/11/01 03:24:29;;;;;;;;;;;;;;;0.56;100.00;99758.88;1654581;86;20413;-67
2021/11/01 03:26:56;;;;;;;;;;;;;;;0.52;100.00;99750.52;1652512;86;21069;-67
2021/11/01 03:29:22;;;;;;;;;;;;;;;0.51;100.00;99753.33;1654644;86;20116;-66
2021/11/01 03:31:48;;;;;;;;;;;;;;;0.55;100.00;99759.38;1654688;86;20117;-66
2021/11/01 03:34:15;;;;;;;;;;;;;;;0.51;100.00;99755.46;1648518;86;20128;-66
2021/11/01 03:36:41;;;;;;;;;;;;;;;0.44;100.00;99749.27;1643919;86;20410;-67
2021/11/01 03:39:12;;;;;;;;;;;;;;;0.45;100.00;99752.75;1640127;86;21134;-67
2021/11/01 03:41:36;;;;;;;;;;;;;;;0.44;100.00;99753.23;1654276;86;20120;-66
2021/11/01 03:44:06;;;;;;;;;;;;;;;0.44;100.00;99751.91;1636907;86;20145;-66
2021/11/01 03:49:04;;;;;;;;;;;;;;;0.38;100.00;99740.27;1651374;86;20378;-66
2021/11/01 03:51:40;;;;;;;;;;;;;;;0.44;100.00;99745.31;1628907;86;21104;-67
2021/11/01 03:54:06;;;;;;;;;;;;;;;0.45;100.00;99736.91;1628097;86;20643;-67
2021/11/01 03:56:33;;;;;;;;;;;;;;;0.46;100.00;99744.63;1628758;86;20116;-66
2021/11/01 03:58:59;;;;;;;;;;;;;;;0.42;100.00;99740.23;1628795;86;20104;-66
2021/11/01 04:01:26;;;;;;;;;;;;;;;0.41;100.00;99729.33;1628183;86;20120;-66
2021/11/01 04:03:53;;;;;;;;;;;;;;;0.43;100.00;99735.77;1648501;86;21129;-66
2021/11/01 04:06:22;;;;;;;;;;;;;;;0.41;100.00;99735.12;1655757;86;20374;-66
2021/11/01 04:08:48;;;;;;;;;;;;;;;0.38;100.00;99731.53;1647825;86;20096;-66
2021/11/01 04:11:17;;;;;;;;;;;;;;;0.39;100.00;99732.69;1654945;86;20413;-66
2021/11/01 04:13:43;;;;;;;;;;;;;;;0.43;100.00;99731.30;1654360;85;20207;-66
2021/11/01 04:16:13;;;;;;;;;;;;;;;0.42;100.00;99731.49;1652263;86;21157;-66
2021/11/01 04:18:54;;;;;;;;;;;;;;;0.40;100.00;99726.39;1646526;86;20116;-65
2021/11/01 04:21:14;;;;;;;;;;;;;;;0.38;100.00;99720.47;1648945;86;20092;-65
2021/11/01 04:23:40;;;;;;;;;;;;;;;0.40;100.00;99722.42;1633170;86;20124;-65
2021/11/01 04:26:08;;;;;;;;;;;;;;;0.42;100.00;99716.47;1653125;86;20092;-66
2021/11/01 04:28:36;;;;;;;;;;;;;;;0.46;100.00;99716.90;1636232;87;21959;-66
2021/11/01 04:31:10;;;;;;;;;;;;;;;0.51;100.00;99712.39;1653148;86;20123;-66
2021/11/01 04:33:34;;;;;;;;;;;;;;;0.47;100.00;99703.22;1637652;86;20135;-67
2021/11/01 04:36:00;;;;;;;;;;;;;;;0.43;100.00;99709.35;1636290;87;20535;-67
2021/11/01 04:41:26;;;;;;;;;;;;;;;0.35;100.00;99703.67;1651976;86;21148;-67
2021/11/01 04:54:27;;;;;;;;;;;;;;;0.25;100.00;99715.02;1649447;86;21056;-66
2021/11/01 04:56:54;;;;;;;;;;;;;;;0.25;100.00;99708.93;1664262;85;20414;-67
2021/11/01 04:59:22;;;;;;;;;;;;;;;0.22;100.00;99708.77;1657975;86;20140;-67
2021/11/01 05:01:53;;;;;;;;;;;;;;;0.28;100.00;99708.05;1648547;85;20172;-67
2021/11/01 05:04:27;;;;;;;;;;;;;;;0.26;100.00;99705.27;1640113;86;20128;-66
2021/11/01 05:06:53;;;;;;;;;;;;;;;0.26;100.00;99701.31;1648962;86;21063;-67
2021/11/01 05:09:27;;;;;;;;;;;;;;;0.26;100.00;99702.63;1669165;86;20120;-67
2021/11/01 05:14:29;;;;;;;;;;;;;;;0.37;100.00;99707.46;1638568;85;20182;-68
2021/11/01 05:17:02;;;;;;;;;;;;;;;0.36;100.00;99707.94;1647570;86;20084;-66
2021/11/01 05:19:27;;;;;;;;;;;;;;;0.38;100.00;99705.13;1643532;86;21140;-66
2021/11/01 05:21:59;;;;;;;;;;;;;;;0.40;100.00;99701.80;1647976;85;20238;-66
2021/11/01 05:29:50;;;;;;;;;;;;;;;0.68;100.00;99709.04;1628237;86;20177;-67
2021/11/01 05:32:34;;;;;;;;;;;;;;;0.80;100.00;99702.27;1660414;84;21741;-67
2021/11/01 05:34:47;;;;;;;;;;;;;;;0.90;100.00;99716.50;1645891;85;20441;-67
2021/11/01 05:37:14;;;;;;;;;;;;;;;0.96;100.00;99711.80;1627653;86;20468;-69
2021/11/01 05:39:41;;;;;;;;;;;;;;;1.06;100.00;99709.16;1642920;86;20104;-68
2021/11/01 05:42:08;;;;;;;;;;;;;;;1.20;100.00;99716.73;1634215;85;20092;-68
2021/11/01 05:44:37;;;;;;;;;;;;;;;1.29;100.00;99716.89;1647316;86;20571;-67
2021/11/01 05:47:06;;;;;;;;;;;;;;;1.45;100.00;99715.02;1642989;86;20180;-66
2021/11/01 05:49:36;;;;;;;;;;;;;;;1.63;100.00;99723.81;1637900;86;20132;-66
2021/11/01 05:52:04;;;;;;;;;;;;;;;1.76;100.00;99722.58;1651651;86;20186;-65
2021/11/01 05:54:32;;;;;;;;;;;;;;;1.89;100.00;99713.42;1660669;85;20149;-65
2021/11/01 06:05:17;;;;;;;;;;;;;;;2.46;100.00;99726.59;1654359;86;20084;-62
2021/11/01 06:07:58;;;;;;;;;;;;;;;2.68;100.00;99722.81;1654346;86;20120;-64
2021/11/01 06:15:31;;;;;;;;;;;;;;;3.14;100.00;99722.13;1648022;86;20172;-65
2021/11/01 06:18:00;;;;;;;;;;;;;;;3.43;100.00;99736.06;1655197;86;20151;-64
2021/11/01 06:20:27;;;;;;;;;;;;;;;3.59;100.00;99738.30;1627449;85;20163;-63
2021/11/01 06:22:54;;;;;;;;;;;;;;;3.67;100.00;99728.51;1652849;85;20605;-63
2021/11/01 06:25:20;;;;;;;;;;;;;;;3.84;100.00;99732.38;1645142;86;20476;-63
2021/11/01 06:27:47;;;;;;;;;;;;;;;4.12;100.00;99731.34;1642428;86;20169;-63
2021/11/01 06:30:30;;;;;;;;;;;;;;;4.14;100.00;99731.45;1651352;86;20128;-64
2021/11/01 06:41:25;;;;;;;;;;;;;;;4.55;100.00;99738.27;1655217;86;20398;-68
2021/11/01 07:22:01;;;;;;;;;;;;;;;6.45;100.00;99726.70;1433615;99;20501;-65
2021/11/01 08:25:53;;;;;;;;;;;;;;;8.89;100.00;99702.13;1531661;93;20199;-63
2021/11/01 08:28:24;;;;;;;;;;;;;;;8.84;100.00;99697.98;1540856;92;21137;-64
2021/11/01 09:27:09;;;;;;;;;;;;;;;10.63;100.00;99658.36;1638247;86;20117;-67
2021/11/01 09:42:56;;;;;;;;;;;;;;;11.47;100.00;99640.38;1647252;85;20420;-67
2021/11/01 09:45:24;;;;;;;;;;;;;;;11.69;100.00;99640.26;1643579;86;20169;-66
2021/11/01 09:47:51;;;;;;;;;;;;;;;11.52;100.00;99618.90;1655800;86;21119;-66
2021/11/01 09:50:21;;;;;;;;;;;;;;;11.41;100.00;99632.52;1654178;85;20207;-67
2021/11/01 09:52:56;;;;;;;;;;;;;;;11.69;100.00;99630.05;1651705;87;20120;-66
2021/11/01 09:55:43;;;;;;;;;;;;;;;11.97;100.00;99627.53;1596008;88;20108;-67
2021/11/01 10:00:40;;;;;;;;;;;;;;;11.77;100.00;99607.50;1614214;88;21159;-65
2021/11/01 10:03:06;;;;;;;;;;;;;;;11.76;100.00;99615.30;1651882;87;20107;-66
2021/11/01 10:13:08;;;;;;;;;;;;;;;11.95;100.00;99606.27;1644562;82;92674;-67
2021/11/01 10:18:19;;;;;;;;;;;;;;;12.39;100.00;99593.00;1641163;87;20445;-70
2021/11/01 10:20:49;;;;;;;;;;;;;;;12.35;100.00;99586.55;1651300;86;20089;-71
2021/11/01 10:23:17;;;;;;;;;;;;;;;11.95;100.00;99580.72;1642089;86;20172;-69
2021/11/01 10:25:45;;;;;;;;;;;;;;;12.07;100.00;99574.32;1638993;87;20115;-72
2021/11/01 10:28:12;;;;;;;;;;;;;;;12.19;100.00;99570.33;1617840;87;21179;-69
2021/11/01 10:30:39;;;;;;;;;;;;;;;12.17;100.00;99568.97;1647619;85;22371;-70
2021/11/01 10:33:07;;;;;;;;;;;;;;;12.07;100.00;99560.33;1648388;86;20154;-70
2021/11/01 10:35:36;;;;;;;;;;;;;;;11.85;100.00;99559.13;1648362;86;20214;-69
2021/11/01 10:38:22;;;;;;;;;;;;;;;11.87;100.00;99561.59;1647032;85;20150;-68
2021/11/01 10:41:21;;;;;;;;;;;;;;;12.01;100.00;99549.28;1639000;85;21131;-71
2021/11/01 11:11:46;;;;;;;;;;;;;;;12.77;90.60;99541.92;1642144;85;20412;-70
2021/11/01 11:17:36;;;;;;;;;;;;;;;12.77;91.50;99538.43;1597736;85;20493;-66
2021/11/01 11:20:25;;;;;;;;;;;;;;;12.84;88.29;99537.63;1561825;90;20426;-67
2021/11/01 11:22:52;;;;;;;;;;;;;;;13.00;86.61;99532.48;1596018;89;21161;-66
2021/11/01 11:31:15;;;;;;;;;;;;;;;12.85;85.17;99522.52;1620673;88;20288;-66
2021/11/01 11:42:30;;;;;;;;;;;;;;;12.39;87.30;99498.80;1603132;88;20200;-66
2021/11/01 11:50:34;;;;;;;;;;;;;;;11.43;95.58;99502.19;1584170;89;21168;-66
2021/11/01 11:53:19;;;;;;;;;;;;;;;11.15;98.32;99496.12;1592603;88;20191;-65
2021/11/01 11:55:59;;;;;;;;;;;;;;;11.08;99.54;99492.05;1591884;88;20133;-67
2021/11/01 11:58:45;;;;;;;;;;;;;;;11.15;99.49;99490.75;1592421;90;20127;-65
2021/11/01 12:01:27;;;;;;;;;;;;;;;11.25;99.03;99481.14;1584149;88;20159;-67
2021/11/01 12:03:55;;;;;;;;;;;;;;;11.15;99.46;99476.52;1618314;87;21093;-66
2021/11/01 12:06:23;;;;;;;;;;;;;;;11.26;99.65;99482.20;1643525;85;20147;-67
2021/11/01 12:08:57;;;;;;;;;;;;;;;11.57;97.42;99479.69;1630947;85;20146;-64
2021/11/01 12:19:16;;;;;;;;;;;;;;;11.67;95.62;99478.93;1613831;86;20470;-68
2021/11/01 12:21:48;;;;;;;;;;;;;;;11.63;95.96;99477.28;1616012;88;20156;-62
2021/11/01 12:24:21;;;;;;;;;;;;;;;11.50;95.97;99469.70;1626456;86;20515;-63
2021/11/01 12:26:46;;;;;;;;;;;;;;;11.55;96.15;99466.50;1604704;88;20177;-62
2021/11/01 12:29:13;;;;;;;;;;;;;;;11.65;94.89;99461.70;1626413;86;21095;-62
2021/11/01 12:31:41;;;;;;;;;;;;;;;11.83;94.02;99463.64;1629393;86;20148;-63
2021/11/01 12:34:20;;;;;;;;;;;;;;;12.13;92.59;99453.55;1656280;85;20196;-63
2021/11/01 12:37:17;;;;;;;;;;;;;;;12.14;91.30;99457.30;1621167;87;20131;-62
2021/11/01 12:39:41;;;;;;;;;;;;;;;12.26;90.54;99449.53;1602109;88;20459;-63
2021/11/01 12:42:34;;;;;;;;;;;;;;;12.51;89.66;99453.58;1624433;86;21210;-62
2021/11/01 12:58:57;;;;;;;;;;;;;;;12.41;88.93;99445.50;1628548;88;20127;-66
2021/11/01 13:01:24;;;;;;;;;;;;;;;12.46;88.21;99447.39;1629466;87;20176;-64
2021/11/01 13:03:54;;;;;;;;;;;;;;;12.47;87.91;99440.41;1629439;88;20147;-62
2021/11/01 13:06:37;;;;;;;;;;;;;;;12.50;88.52;99443.91;1629716;88;20425;-63
2021/11/01 13:09:01;;;;;;;;;;;;;;;12.50;87.79;99431.78;1629743;87;21199;-63
2021/11/01 13:11:38;;;;;;;;;;;;;;;12.46;88.32;99429.89;1629554;87;20146;-63
2021/11/01 13:19:25;;;;;;;;;;;;;;;12.36;88.73;99429.35;1660734;85;20079;-63
2021/11/01 13:21:59;;;;;;;;;;;;;;;12.18;89.59;99424.77;1639425;87;21149;-62
2021/11/01 13:24:42;;;;;;;;;;;;;;;11.86;90.97;99420.11;1627422;85;20183;-62
2021/11/01 13:27:53;;;;;;;;;;;;;;;11.71;91.89;99414.95;1649582;85;20441;-61
2021/11/01 13:38:44;;;;;;;;;;;;;;;11.46;94.61;99410.83;1649343;87;20492;-61
2021/11/01 13:41:15;;;;;;;;;;;;;;;11.28;95.90;99418.27;1649891;87;20176;-61
2021/11/01 13:43:41;;;;;;;;;;;;;;;11.10;97.82;99414.70;1677014;85;20129;-61
2021/11/01 13:46:08;;;;;;;;;;;;;;;10.92;99.12;99405.98;1681832;85;20113;-61
2021/11/01 13:48:35;;;;;;;;;;;;;;;10.78;100.00;99405.35;1681502;85;21140;-62
2021/11/01 13:51:05;;;;;;;;;;;;;;;10.71;100.00;99401.57;1681790;85;20097;-61
2021/11/01 13:53:42;;;;;;;;;;;;;;;10.73;100.00;99396.22;1681813;85;20114;-60
2021/11/01 13:56:46;;;;;;;;;;;;;;;10.72;100.00;99397.27;1681392;85;20116;-60
2021/11/01 13:58:55;;;;;;;;;;;;;;;10.72;100.00;99401.30;1670846;85;20233;-61
2021/11/01 14:14:58;;;;;;;;;;;;;;;10.24;100.00;99392.84;1651068;86;21223;-60
2021/11/01 14:18:01;;;;;;;;;;;;;;;10.09;100.00;99388.98;1627067;87;20159;-61
2021/11/01 14:31:40;;;;;;;;;;;;;;;9.57;100.00;99386.83;1623833;86;20193;-64
2021/11/01 14:33:51;;;;;;;;;;;;;;;9.48;100.00;99380.82;1606492;88;20495;-63
2021/11/01 15:12:40;;;;;;;;;;;;;;;8.65;100.00;99360.23;1602535;88;20151;-63
2021/11/01 15:22:55;;;;;;;;;;;;;;;8.54;100.00;99365.14;1599765;89;21144;-65
2021/11/01 15:38:44;;;;;;;;;;;;;;;8.46;100.00;99365.56;1594792;89;20124;-63
2021/11/01 16:19:51;;;;;;;;;;;;;;;7.63;100.00;99387.38;1585961;89;20171;-67
2021/11/01 16:22:18;;;;;;;;;;;;;;;7.58;100.00;99391.81;1587421;89;20134;-66
2021/11/01 16:24:47;;;;;;;;;;;;;;;7.53;100.00;99389.85;1605223;85;20162;-67
2021/11/01 16:27:19;;;;;;;;;;;;;;;7.45;100.00;99391.57;1680788;84;20437;-66
2021/11/01 16:32:24;;;;;;;;;;;;;;;7.27;100.00;99397.87;1644112;85;20229;-67
2021/11/01 16:34:59;;;;;;;;;;;;;;;7.15;100.00;99396.55;1644862;85;20139;-66
2021/11/01 16:37:37;;;;;;;;;;;;;;;7.06;100.00;99399.31;1653798;85;20161;-67
2021/11/01 16:40:10;;;;;;;;;;;;;;;6.99;100.00;99397.30;1650245;85;20085;-65
2021/11/01 16:42:37;;;;;;;;;;;;;;;7.00;100.00;99400.23;1654033;85;21109;-66
2021/11/01 16:45:18;;;;;;;;;;;;;;;6.98;100.00;99403.16;1632733;85;20209;-66
2021/11/01 16:47:45;;;;;;;;;;;;;;;6.95;100.00;99399.59;1669929;85;20144;-65
2021/11/01 16:50:15;;;;;;;;;;;;;;;6.87;100.00;99395.44;1681096;85;20080;-68
2021/11/01 16:52:44;;;;;;;;;;;;;;;6.83;100.00;99386.27;1680776;85;20151;-67
2021/11/01 16:55:21;;;;;;;;;;;;;;;6.80;100.00;99400.60;1671035;84;21133;-69
2021/11/01 16:57:53;;;;;;;;;;;;;;;6.72;100.00;99392.96;1678856;84;20129;-67
2021/11/01 17:00:28;;;;;;;;;;;;;;;6.65;100.00;99392.54;1654495;84;20187;-68
2021/11/01 17:03:05;;;;;;;;;;;;;;;6.61;100.00;99386.06;1688739;84;20401;-67
2021/11/01 17:22:17;;;;;;;;;;;;;;;6.29;100.00;99378.88;1599903;87;21163;-68
2021/11/01 17:24:48;;;;;;;;;;;;;;;6.28;100.00;99384.47;1615158;88;20140;-67
2021/11/01 17:30:36;;;;;;;;;;;;;;;6.29;100.00;99382.08;1601377;89;20497;-66
2021/11/01 18:40:34;;;;;;;;;;;;;;;6.42;100.00;99325.89;1593854;88;20600;-63
2021/11/01 18:42:47;;;;;;;;;;;;;;;6.42;100.00;99324.03;1613674;87;20466;-64
2021/11/01 18:45:39;;;;;;;;;;;;;;;;;;;;;
2021/11/01 18:56:29;;;;;;;;;;;;;;;6.48;100.00;99319.62;1538835;92;20506;-63
2021/11/01 18:58:57;;;;;;;;;;;;;;;6.47;100.00;99311.34;1555193;90;21152;-66
2021/11/01 19:01:23;;;;;;;;;;;;;;;6.48;100.00;99304.15;1551267;90;20138;-66
2021/11/01 19:03:53;;;;;;;;;;;;;;;6.46;100.00;99304.90;1559066;90;20452;-64
2021/11/01 19:06:31;;;;;;;;;;;;;;;6.46;100.00;99296.90;1558264;90;20200;-63
2021/11/01 19:09:40;;;;;;;;;;;;;;;6.44;100.00;99296.62;1555191;92;20487;-64
2021/11/01 20:15:13;;;;;;;;;;;;;;;6.24;100.00;99282.81;1720887;83;20136;-63
2021/11/01 21:27:21;;;;;;;;;;;;;;;6.04;100.00;99247.72;1663839;85;20518;-66
2021/11/01 21:29:49;;;;;;;;;;;;;;;6.01;100.00;99246.33;1661361;85;21132;-67
2021/11/01 21:32:15;;;;;;;;;;;;;;;5.99;100.00;99235.89;1653664;85;20184;-65
2021/11/01 21:34:53;;;;;;;;;;;;;;;5.99;100.00;99244.41;1654567;85;20253;-65
2021/11/01 21:37:10;;;;;;;;;;;;;;;5.97;100.00;99239.83;1657675;85;20188;-66
2021/11/01 21:39:38;;;;;;;;;;;;;;;5.96;100.00;99239.02;1614212;87;20177;-66
2021/11/01 21:42:05;;;;;;;;;;;;;;;5.97;100.00;99246.48;1578412;88;21161;-66
2021/11/01 21:44:39;;;;;;;;;;;;;;;5.96;100.00;99252.34;1677597;84;20429;-65
2021/11/01 21:47:06;;;;;;;;;;;;;;;5.96;100.00;99238.22;1690526;84;20082;-66
2021/11/01 21:49:32;;;;;;;;;;;;;;;5.94;100.00;99250.42;1693814;84;20127;-67
2021/11/01 21:51:59;;;;;;;;;;;;;;;5.95;100.00;99245.91;1686428;84;20118;-66
2021/11/01 21:54:28;;;;;;;;;;;;;;;5.96;100.00;99236.36;1699197;84;21721;-65
2021/11/01 21:57:02;;;;;;;;;;;;;;;5.96;100.00;99239.55;1659385;84;20163;-65
2021/11/01 22:21:09;;;;;;;;;;;;;;;5.88;100.00;99227.36;1690984;84;21093;-65
2021/11/01 22:26:08;;;;;;;;;;;;;;;5.86;100.00;99220.11;1693888;84;20111;-65
2021/11/01 22:34:17;;;;;;;;;;;;;;;5.77;100.00;99211.64;1694558;84;21088;-64
2021/11/01 22:39:50;;;;;;;;;;;;;;;5.77;100.00;99213.50;1693746;84;20428;-64
2021/11/01 22:45:00;;;;;;;;;;;;;;;5.74;100.00;99204.12;1694185;84;20413;-65
2021/11/01 22:58:05;;;;;;;;;;;;;;;5.67;100.00;99184.78;1694184;83;20096;-66
2021/11/01 23:00:41;;;;;;;;;;;;;;;5.69;100.00;99181.89;1689901;84;21136;-65
2021/11/01 23:03:16;;;;;;;;;;;;;;;5.69;100.00;99185.89;1693009;84;20114;-64
2021/11/01 23:06:04;;;;;;;;;;;;;;;5.70;100.00;99187.50;1693158;84;20132;-64
2021/11/01 23:33:04;;;;;;;;;;;;;;;5.69;100.00;99154.74;1654166;86;20124;-65
2021/11/01 23:35:30;;;;;;;;;;;;;;;5.68;100.00;99156.29;1654114;87;20462;-65
2021/11/01 23:37:57;;;;;;;;;;;;;;;5.66;100.00;99161.87;1653988;87;20109;-64
2021/11/01 23:40:23;;;;;;;;;;;;;;;5.68;100.00;99157.63;1660167;85;20716;-64
2021/11/01 23:42:49;;;;;;;;;;;;;;;5.67;100.00;99156.02;1681887;84;20083;-64
2021/11/01 23:45:16;;;;;;;;;;;;;;;5.67;100.00;99156.02;1681682;84;20366;-63
2021/11/01 23:47:42;;;;;;;;;;;;;;;5.68;100.00;99152.30;1681784;85;20401;-66
2021/11/01 23:50:08;;;;;;;;;;;;;;;5.68;100.00;99153.63;1681545;85;20244;-66
2021/11/01 23:52:54;;;;;;;;;;;;;;;5.66;100.00;99147.22;1681621;85;21168;-64
2021/11/01 23:55:08;;;;;;;;;;;;;;;5.65;100.00;99148.25;1677393;85;20112;-64
2021/11/01 23:57:34;;;;;;;;;;;;;;;5.63;100.00;99155.65;1681719;84;20414;-64
